McGrew, NE (69353)

8:40 PM MST on November 19, 2017 (GMT -0700)
Heilig | | Change Station
Active Advisory: Fire Weather Watch

Elev 3967 ft 41.87 °N, 103.60 °W | Updated 47 minutes ago

Partly Cloudy
Partly Cloudy
41 °F
Feels Like 35 °F
N
9
Wind Variable Wind from West

Today
High -- | Low -- °F
--% Chance of Precip.
Yesterday
High -- | Low -- °F
Precip. -- in
Pressure 29.94 in
Visibility 10.0 miles
Clouds Clear
Windchill 35 °F
Dew Point 9 °F
Humidity 27%
Rainfall 0.00 in
Snow Depth Not available.
6:48 AM 4:29 PM
Waxing Crescent, 3% visible
METAR KBFF 200253Z AUTO 28008KT 10SM CLR 05/M13 A2988 RMK AO2 SLP137 T00501128 56005
Pressure 29.94 in
Visibility 10.0 miles
Clouds Clear
Windchill 35 °F
Dew Point 9 °F
Humidity 27%
Rainfall 0.00 in
Snow Depth Not available.
6:48 AM 4:29 PM
Waxing Crescent, 3% visible
METAR KBFF 200253Z AUTO 28008KT 10SM CLR 05/M13 A2988 RMK AO2 SLP137 T00501128 56005

Get Your Daily Forecast Email!

Thanks for signing up!

Be on the lookout for a verification email in your inbox.

You'll start receiving severe weather alerts in your inbox..

×

10-Day Weather Forecast

Almanac

Astronomy

Nov. 19, 2017 Rise Set
Actual Time
Civil Twilight
Nautical Twilight
Astronomical Twilight
Moon
Length of Visible Light
Length of Day
Tomorrow will be .
, % of the Moon is Illuminated

Today's Extremes

State Highs State Lows

Community

WunderPhotos

Category 6

Welcome to Category 6. This is the collective home for Weather Underground's featured writeups by Dr. Jeff Masters (right), Bob Henson (left), Chris Burt, and other regular contributors.

Nearby

Air Quality

  Air Quality AQ Index Pollutant
Not available.

Snow Depth

Station Depth Elevation

Earthquake Activity

City Distance Mag. Time & Date
Minimum magnitude displayed is 2.5.

Coastal Water Temperatures

Place Temperature

Stations

Nearby Weather Stations

Station Location Temp. Windchill Dew Point Humidity Wind Precip. Elev Updated Type
                   

Watches & Warnings

Fire Weather Watch
Issued: 2:59 PM MST Nov. 19, 2017 – National Weather Service

... Fire Weather Watch remains in effect from Monday morning
through Monday afternoon for gusty winds and low humidity for
fire weather zones 310 and 313...

* affected area... fire weather zone 313.Fire weather zone 310.

* Wind... west at 15 to 25 mph sustained with gusts to 40 mph
possible.

* Humidity... humidity may fall to 10 to 15 percent across the
southern Nebraska Panhandle and extreme southeast Wyoming Monday
afternoon.

* Impacts... any fires that develop will likely spread rapidly.
Outdoor burning is not recommended.

Precautionary/preparedness actions...

A Fire Weather Watch means that critical fire weather conditions
may develop. Listen for later forecasts and possible red flag
warnings.